This is the latest recevied weather packets stored in our database for station/object K5DLF-13. If no packets are shown the sender has not sent any weather packets the latest 10 day(s).
| Time | Temp. | Humidity | Pressure | Rain* | Wind** | Luminosity | Snow |
|---|---|---|---|---|---|---|---|
| 1777667965 | 17.78° C | 96% | 1006.6 hPa | 19.05 mm | - | 0 W/m² | - |
| 1777667665 | 17.78° C | 96% | 1006.3 hPa | 19.3 mm | - | 0 W/m² | - |
| 1777667365 | 17.78° C | 96% | 1005.8 hPa | 19.05 mm | - | 9 W/m² | - |
| 1777667065 | 17.78° C | 96% | 1006 hPa | 18.8 mm | - | 9 W/m² | - |
| 1777666765 | 17.78° C | 96% | 1005.2 hPa | 16.26 mm | - | 14 W/m² | - |
| 1777666465 | 17.78° C | 96% | 1006 hPa | 14.48 mm | - | 18 W/m² | - |
| 1777666165 | 17.78° C | 96% | 1006.5 hPa | 11.94 mm | - | 0 W/m² | - |
| 1777665865 | 17.78° C | 96% | 1005.9 hPa | 11.94 mm | - | 12 W/m² | - |
| 1777665565 | 17.78° C | 96% | 1005.9 hPa | 11.68 mm | - | 5 W/m² | - |
| 1777665265 | 17.78° C | 96% | 1005.8 hPa | 10.92 mm | - | 7 W/m² | - |
| 1777664965 | 17.78° C | 96% | 1005.3 hPa | 8.64 mm | - | 21 W/m² | - |
| 1777664665 | 17.78° C | 96% | 1005.5 hPa | 4.83 mm | - | 21 W/m² | - |
| 1777664365 | 17.78° C | 96% | 1007.4 hPa | 1.52 mm | - | 11 W/m² | - |
| 1777664065 | 17.78° C | 96% | 1007.5 hPa | 0.76 mm | - | 0 W/m² | - |
| 1777663765 | 17.78° C | 96% | 1006.1 hPa | 0.76 mm | - | 0 W/m² | - |
| 1777663465 | 17.78° C | 96% | 1005.4 hPa | 0.25 mm | - | 9 W/m² | - |
| 1777663165 | 17.78° C | 96% | 1005.9 hPa | 0 mm | - | 5 W/m² | - |
| 1777662865 | 17.78° C | 96% | 1006 hPa | 0 mm | - | 0 W/m² | - |
| 1777662565 | 17.78° C | 96% | 1006.5 hPa | 0 mm | - | 7 W/m² | - |
| 1777662265 | 17.78° C | 96% | 1006.9 hPa | 0 mm | - | 9 W/m² | - |
| 1777661965 | 17.78° C | 96% | 1006.5 hPa | 0 mm | - | 23 W/m² | - |
| 1777661665 | 17.78° C | 96% | 1006 hPa | 0 mm | - | 23 W/m² | - |
| 1777661365 | 17.78° C | 96% | 1006.1 hPa | 0 mm | - | 25 W/m² | - |
| 1777661065 | 17.78° C | 96% | 1006.8 hPa | 0 mm | - | 14 W/m² | - |
| 1777660765 | 17.78° C | 96% | 1007.1 hPa | 0 mm | - | 5 W/m² | - |
* Rain latest hour (hover to see other rain measurements)
** Current wind speed in m/s (hover to see current wind gust speed)